sensor_id;sensor_type;location;lat;lon;timestamp;pressure;altitude;pressure_sealevel;temperature;humidity
20027;BME280;10174;42.688;23.344;2023-04-02T00:09:14;94425.13;;;7.97;65.50
20027;BME280;10174;42.688;23.344;2023-04-02T00:11:47;94425.63;;;8.05;64.87
20027;BME280;10174;42.688;23.344;2023-04-02T00:14:30;94397.56;;;7.92;65.22
20027;BME280;10174;42.688;23.344;2023-04-02T00:16:59;94358.25;;;7.77;64.25
20027;BME280;10174;42.688;23.344;2023-04-02T00:19:39;94423.25;;;8.18;63.91
20027;BME280;10174;42.688;23.344;2023-04-02T00:22:11;94401.81;;;8.03;64.35
20027;BME280;10174;42.688;23.344;2023-04-02T00:24:38;94412.78;;;8.01;64.78
20027;BME280;10174;42.688;23.344;2023-04-02T00:27:08;94372.44;;;7.72;64.47
20027;BME280;10174;42.688;23.344;2023-04-02T00:29:35;94363.59;;;7.77;63.45
20027;BME280;10174;42.688;23.344;2023-04-02T00:32:00;94396.22;;;8.10;63.18
20027;BME280;10174;42.688;23.344;2023-04-02T00:34:36;94397.81;;;8.06;63.38
20027;BME280;10174;42.688;23.344;2023-04-02T00:37:02;94344.38;;;7.75;63.31
20027;BME280;10174;42.688;23.344;2023-04-02T00:39:30;94420.84;;;8.17;63.78
20027;BME280;10174;42.688;23.344;2023-04-02T00:41:58;94378.03;;;7.96;62.92
20027;BME280;10174;42.688;23.344;2023-04-02T00:44:31;94423.50;;;8.17;63.24
20027;BME280;10174;42.688;23.344;2023-04-02T00:47:06;94416.00;;;8.24;62.63
20027;BME280;10174;42.688;23.344;2023-04-02T00:49:38;94425.63;;;8.25;63.03
20027;BME280;10174;42.688;23.344;2023-04-02T00:52:12;94398.63;;;8.06;62.70
20027;BME280;10174;42.688;23.344;2023-04-02T00:54:46;94418.69;;;8.29;63.27
20027;BME280;10174;42.688;23.344;2023-04-02T00:57:24;94423.50;;;8.22;64.93
20027;BME280;10174;42.688;23.344;2023-04-02T01:00:00;94423.22;;;8.24;62.52
20027;BME280;10174;42.688;23.344;2023-04-02T01:02:33;94423.50;;;8.32;62.53
20027;BME280;10174;42.688;23.344;2023-04-02T01:05:19;94422.16;;;8.14;66.15
20027;BME280;10174;42.688;23.344;2023-04-02T01:13:35;94436.00;;;6.18;77.31
20027;BME280;10174;42.688;23.344;2023-04-02T01:16:17;94431.44;;;5.81;79.31
20027;BME280;10174;42.688;23.344;2023-04-02T01:18:57;94428.41;;;5.72;80.21
20027;BME280;10174;42.688;23.344;2023-04-02T01:22:27;94442.97;;;5.59;81.08
20027;BME280;10174;42.688;23.344;2023-04-02T01:24:34;94371.94;;;5.10;81.98
20027;BME280;10174;42.688;23.344;2023-04-02T01:27:04;94331.75;;;4.85;81.23
20027;BME280;10174;42.688;23.344;2023-04-02T01:29:52;94453.56;;;5.54;81.85
20027;BME280;10174;42.688;23.344;2023-04-02T01:32:22;94432.47;;;5.47;81.41
20027;BME280;10174;42.688;23.344;2023-04-02T01:34:50;94459.50;;;5.61;81.22
20027;BME280;10174;42.688;23.344;2023-04-02T01:37:24;94454.19;;;5.61;81.64
20027;BME280;10174;42.688;23.344;2023-04-02T01:45:42;94451.28;;;5.68;81.32
20027;BME280;10174;42.688;23.344;2023-04-02T01:48:29;94410.94;;;5.54;80.55
20027;BME280;10174;42.688;23.344;2023-04-02T01:50:56;94434.25;;;5.69;80.77
20027;BME280;10174;42.688;23.344;2023-04-02T01:53:25;94395.47;;;5.51;80.43
20027;BME280;10174;42.688;23.344;2023-04-02T01:55:54;94445.63;;;5.86;80.31
20027;BME280;10174;42.688;23.344;2023-04-02T01:58:26;94414.50;;;5.65;81.18
20027;BME280;10174;42.688;23.344;2023-04-02T02:00:58;94441.84;;;5.82;80.00
20027;BME280;10174;42.688;23.344;2023-04-02T02:03:25;94422.31;;;5.71;81.14
20027;BME280;10174;42.688;23.344;2023-04-02T02:05:51;94441.63;;;5.89;80.03
20027;BME280;10174;42.688;23.344;2023-04-02T02:08:39;94434.00;;;5.98;79.62
20027;BME280;10174;42.688;23.344;2023-04-02T02:11:18;94371.31;;;5.63;79.52
20027;BME280;10174;42.688;23.344;2023-04-02T02:13:54;94439.44;;;6.13;79.33
20027;BME280;10174;42.688;23.344;2023-04-02T02:16:20;94443.97;;;6.13;79.03
20027;BME280;10174;42.688;23.344;2023-04-02T02:18:50;94407.47;;;5.86;79.20
20027;BME280;10174;42.688;23.344;2023-04-02T02:21:35;94376.22;;;5.76;78.88
20027;BME280;10174;42.688;23.344;2023-04-02T02:24:03;94434.63;;;6.10;79.14
20027;BME280;10174;42.688;23.344;2023-04-02T02:26:30;94412.53;;;5.82;80.31
20027;BME280;10174;42.688;23.344;2023-04-02T02:28:59;94410.88;;;5.76;79.94
20027;BME280;10174;42.688;23.344;2023-04-02T02:31:30;94443.91;;;6.02;80.18
20027;BME280;10174;42.688;23.344;2023-04-02T02:34:01;94387.41;;;5.73;79.91
20027;BME280;10174;42.688;23.344;2023-04-02T02:36:53;94444.69;;;6.03;79.95
20027;BME280;10174;42.688;23.344;2023-04-02T02:39:46;94437.53;;;6.09;79.84
20027;BME280;10174;42.688;23.344;2023-04-02T02:42:38;94424.38;;;5.97;79.74
20027;BME280;10174;42.688;23.344;2023-04-02T02:45:12;94415.97;;;5.83;80.95
20027;BME280;10174;42.688;23.344;2023-04-02T02:47:41;94315.56;;;5.18;80.87
20027;BME280;10174;42.688;23.344;2023-04-02T02:50:15;94437.13;;;5.95;80.91
20027;BME280;10174;42.688;23.344;2023-04-02T02:52:49;94441.47;;;6.01;80.95
20027;BME280;10174;42.688;23.344;2023-04-02T02:55:17;94425.34;;;5.85;81.43
20027;BME280;10174;42.688;23.344;2023-04-02T02:57:55;94418.88;;;5.76;81.60
20027;BME280;10174;42.688;23.344;2023-04-02T03:00:21;94445.63;;;5.86;81.87
20027;BME280;10174;42.688;23.344;2023-04-02T03:02:49;94453.34;;;5.88;82.26
20027;BME280;10174;42.688;23.344;2023-04-02T03:05:19;94453.81;;;5.80;81.84
20027;BME280;10174;42.688;23.344;2023-04-02T03:07:47;94451.72;;;5.82;82.13
20027;BME280;10174;42.688;23.344;2023-04-02T03:13:00;94442.88;;;5.81;82.46
20027;BME280;10174;42.688;23.344;2023-04-02T03:15:34;94419.78;;;5.60;81.83
20027;BME280;10174;42.688;23.344;2023-04-02T03:18:05;94449.34;;;5.85;82.18
20027;BME280;10174;42.688;23.344;2023-04-02T03:20:44;94461.09;;;5.89;81.59
20027;BME280;10174;42.688;23.344;2023-04-02T03:23:20;94457.22;;;5.75;82.35
20027;BME280;10174;42.688;23.344;2023-04-02T03:28:35;94445.31;;;5.56;83.48
20027;BME280;10174;42.688;23.344;2023-04-02T03:31:10;94337.59;;;4.87;82.34
20027;BME280;10174;42.688;23.344;2023-04-02T03:33:41;94462.53;;;5.70;83.19
20027;BME280;10174;42.688;23.344;2023-04-02T03:36:22;94465.13;;;5.65;83.58
20027;BME280;10174;42.688;23.344;2023-04-02T03:38:54;94417.38;;;5.31;83.19
20027;BME280;10174;42.688;23.344;2023-04-02T03:41:32;94455.69;;;5.52;83.78
20027;BME280;10174;42.688;23.344;2023-04-02T03:44:05;94451.00;;;5.37;84.38
20027;BME280;10174;42.688;23.344;2023-04-02T03:46:39;94458.91;;;5.27;85.00
20027;BME280;10174;42.688;23.344;2023-04-02T03:50:14;94464.66;;;5.18;86.14
20027;BME280;10174;42.688;23.344;2023-04-02T03:52:34;94456.06;;;5.11;87.07
20027;BME280;10174;42.688;23.344;2023-04-02T03:55:01;94468.06;;;5.14;86.82
20027;BME280;10174;42.688;23.344;2023-04-02T04:03:28;94465.13;;;5.10;85.90
20027;BME280;10174;42.688;23.344;2023-04-02T04:06:01;94469.94;;;5.13;84.87
20027;BME280;10174;42.688;23.344;2023-04-02T04:11:36;94448.78;;;4.79;86.87
20027;BME280;10174;42.688;23.344;2023-04-02T04:14:16;94480.47;;;4.81;87.08
20027;BME280;10174;42.688;23.344;2023-04-02T04:16:48;94486.84;;;4.80;87.83
20027;BME280;10174;42.688;23.344;2023-04-02T04:19:24;94476.09;;;4.92;86.94
20027;BME280;10174;42.688;23.344;2023-04-02T04:22:08;94485.84;;;4.86;87.03
20027;BME280;10174;42.688;23.344;2023-04-02T04:24:34;94365.97;;;4.09;87.33
20027;BME280;10174;42.688;23.344;2023-04-02T04:32:24;94492.16;;;4.80;86.89
20027;BME280;10174;42.688;23.344;2023-04-02T04:34:55;94450.00;;;4.50;87.24
20027;BME280;10174;42.688;23.344;2023-04-02T04:37:25;94492.16;;;4.80;87.55
20027;BME280;10174;42.688;23.344;2023-04-02T04:40:00;94474.28;;;4.75;87.12
20027;BME280;10174;42.688;23.344;2023-04-02T04:42:30;94494.13;;;4.68;87.29
20027;BME280;10174;42.688;23.344;2023-04-02T04:45:15;94501.38;;;4.72;87.99
20027;BME280;10174;42.688;23.344;2023-04-02T04:47:57;94501.00;;;4.63;89.02
20027;BME280;10174;42.688;23.344;2023-04-02T04:50:39;94502.03;;;4.62;88.69
20027;BME280;10174;42.688;23.344;2023-04-02T04:53:21;94490.03;;;4.60;88.64
20027;BME280;10174;42.688;23.344;2023-04-02T04:55:51;94471.72;;;4.63;87.84
20027;BME280;10174;42.688;23.344;2023-04-02T04:58:26;94440.97;;;4.51;86.84
20027;BME280;10174;42.688;23.344;2023-04-02T05:01:04;94414.88;;;4.48;85.91
20027;BME280;10174;42.688;23.344;2023-04-02T05:03:52;94508.94;;;5.25;85.43
20027;BME280;10174;42.688;23.344;2023-04-02T05:06:24;94501.31;;;5.11;86.40
20027;BME280;10174;42.688;23.344;2023-04-02T05:09:00;94431.28;;;4.61;87.58
20027;BME280;10174;42.688;23.344;2023-04-02T05:14:00;94501.41;;;5.16;86.80
20027;BME280;10174;42.688;23.344;2023-04-02T05:16:35;94497.00;;;5.27;86.71
20027;BME280;10174;42.688;23.344;2023-04-02T05:19:15;94474.06;;;5.26;86.38
20027;BME280;10174;42.688;23.344;2023-04-02T05:21:56;94505.69;;;5.67;85.21
20027;BME280;10174;42.688;23.344;2023-04-02T05:24:59;94520.09;;;5.71;83.88
20027;BME280;10174;42.688;23.344;2023-04-02T05:30:14;94520.81;;;5.88;82.74
20027;BME280;10174;42.688;23.344;2023-04-02T05:32:48;94483.69;;;5.82;82.47
20027;BME280;10174;42.688;23.344;2023-04-02T05:35:19;94455.63;;;5.74;81.37
20027;BME280;10174;42.688;23.344;2023-04-02T05:37:46;94482.00;;;6.03;79.70
20027;BME280;10174;42.688;23.344;2023-04-02T05:40:27;94436.25;;;5.84;78.87
20027;BME280;10174;42.688;23.344;2023-04-02T05:42:54;94523.44;;;6.48;76.12
20027;BME280;10174;42.688;23.344;2023-04-02T05:45:34;94531.53;;;6.58;76.12
20027;BME280;10174;42.688;23.344;2023-04-02T05:48:03;94502.78;;;6.71;75.15
20027;BME280;10174;42.688;23.344;2023-04-02T05:50:36;94523.19;;;6.98;74.82
20027;BME280;10174;42.688;23.344;2023-04-02T06:01:12;94513.03;;;6.89;74.19
20027;BME280;10174;42.688;23.344;2023-04-02T06:06:39;94490.38;;;6.97;72.37
20027;BME280;10174;42.688;23.344;2023-04-02T06:09:21;94494.13;;;7.01;72.00
20027;BME280;10174;42.688;23.344;2023-04-02T06:12:03;94494.59;;;6.93;71.74
20027;BME280;10174;42.688;23.344;2023-04-02T06:14:34;94514.72;;;7.06;71.83
20027;BME280;10174;42.688;23.344;2023-04-02T06:16:59;94483.72;;;7.00;71.67
20027;BME280;10174;42.688;23.344;2023-04-02T06:19:29;94539.47;;;7.49;70.83
20027;BME280;10174;42.688;23.344;2023-04-02T06:22:52;94422.22;;;6.84;70.42
20027;BME280;10174;42.688;23.344;2023-04-02T06:24:58;94466.66;;;7.06;70.07
20027;BME280;10174;42.688;23.344;2023-04-02T06:27:25;94547.50;;;7.54;69.90
20027;BME280;10174;42.688;23.344;2023-04-02T06:29:54;94490.47;;;7.28;69.54
20027;BME280;10174;42.688;23.344;2023-04-02T06:32:22;94555.31;;;7.71;69.47
20027;BME280;10174;42.688;23.344;2023-04-02T06:34:51;94491.31;;;7.39;69.58
20027;BME280;10174;42.688;23.344;2023-04-02T06:37:32;94431.44;;;7.19;69.37
20027;BME280;10174;42.688;23.344;2023-04-02T06:40:00;94492.44;;;7.63;69.09
20027;BME280;10174;42.688;23.344;2023-04-02T06:42:33;94438.44;;;7.41;68.45
20027;BME280;10174;42.688;23.344;2023-04-02T06:45:00;94512.31;;;7.93;68.31
20027;BME280;10174;42.688;23.344;2023-04-02T06:50:09;94517.41;;;8.05;67.57
20027;BME280;10174;42.688;23.344;2023-04-02T06:52:51;94522.22;;;8.24;67.42
20027;BME280;10174;42.688;23.344;2023-04-02T06:58:09;94561.88;;;8.52;67.53
20027;BME280;10174;42.688;23.344;2023-04-02T07:00:40;94487.97;;;8.20;67.07
20027;BME280;10174;42.688;23.344;2023-04-02T07:03:15;94513.41;;;8.64;66.36
20027;BME280;10174;42.688;23.344;2023-04-02T07:05:41;94536.41;;;8.86;66.87
20027;BME280;10174;42.688;23.344;2023-04-02T07:08:06;94534.22;;;8.93;66.81
20027;BME280;10174;42.688;23.344;2023-04-02T07:10:33;94570.06;;;9.33;65.15
20027;BME280;10174;42.688;23.344;2023-04-02T07:12:58;94539.00;;;9.27;65.24
20027;BME280;10174;42.688;23.344;2023-04-02T07:15:26;94563.00;;;9.53;63.87
20027;BME280;10174;42.688;23.344;2023-04-02T07:17:52;94530.34;;;9.45;63.09
20027;BME280;10174;42.688;23.344;2023-04-02T07:20:30;94555.47;;;9.60;63.26
20027;BME280;10174;42.688;23.344;2023-04-02T07:22:56;94567.22;;;9.69;64.02
20027;BME280;10174;42.688;23.344;2023-04-02T07:25:23;94512.59;;;9.55;63.45
20027;BME280;10174;42.688;23.344;2023-04-02T07:27:50;94554.44;;;10.06;62.36
20027;BME280;10174;42.688;23.344;2023-04-02T07:30:15;94547.34;;;10.25;61.72
20027;BME280;10174;42.688;23.344;2023-04-02T07:32:41;94552.94;;;10.29;62.29
20027;BME280;10174;42.688;23.344;2023-04-02T07:35:07;94558.81;;;10.36;61.70
20027;BME280;10174;42.688;23.344;2023-04-02T07:37:34;94564.84;;;10.57;59.75
20027;BME280;10174;42.688;23.344;2023-04-02T07:40:00;94513.22;;;10.31;58.01
20027;BME280;10174;42.688;23.344;2023-04-02T07:42:25;94565.56;;;10.68;58.88
20027;BME280;10174;42.688;23.344;2023-04-02T07:44:50;94537.66;;;10.64;59.26
20027;BME280;10174;42.688;23.344;2023-04-02T07:47:16;94578.88;;;10.83;59.49
20027;BME280;10174;42.688;23.344;2023-04-02T07:49:41;94556.16;;;11.00;59.51
20027;BME280;10174;42.688;23.344;2023-04-02T07:52:07;94567.91;;;11.33;56.84
20027;BME280;10174;42.688;23.344;2023-04-02T07:54:32;94527.81;;;11.37;55.27
20027;BME280;10174;42.688;23.344;2023-04-02T07:56:58;94468.94;;;12.30;51.22
20027;BME280;10174;42.688;23.344;2023-04-02T07:59:23;94566.06;;;13.52;47.60
20027;BME280;10174;42.688;23.344;2023-04-02T08:01:51;94554.22;;;14.03;46.40
20027;BME280;10174;42.688;23.344;2023-04-02T08:04:18;94562.25;;;13.81;46.51
20027;BME280;10174;42.688;23.344;2023-04-02T08:06:46;94552.69;;;13.47;47.56
20027;BME280;10174;42.688;23.344;2023-04-02T08:09:12;94565.84;;;15.08;44.07
20027;BME280;10174;42.688;23.344;2023-04-02T08:11:38;94448.75;;;13.86;43.91
20027;BME280;10174;42.688;23.344;2023-04-02T08:14:06;94555.25;;;15.12;43.53
20027;BME280;10174;42.688;23.344;2023-04-02T08:16:45;94570.94;;;16.30;40.80
20027;BME280;10174;42.688;23.344;2023-04-02T08:19:11;94574.44;;;16.66;40.46
20027;BME280;10174;42.688;23.344;2023-04-02T08:21:37;94498.47;;;14.89;41.28
20027;BME280;10174;42.688;23.344;2023-04-02T08:24:02;94515.41;;;14.72;41.49
20027;BME280;10174;42.688;23.344;2023-04-02T08:26:28;94460.81;;;15.42;40.87
20027;BME280;10174;42.688;23.344;2023-04-02T08:28:53;94540.47;;;17.12;39.21
20027;BME280;10174;42.688;23.344;2023-04-02T08:31:19;94555.56;;;17.39;37.44
20027;BME280;10174;42.688;23.344;2023-04-02T08:33:44;94570.28;;;18.58;36.41
20027;BME280;10174;42.688;23.344;2023-04-02T08:36:15;94566.56;;;18.20;37.15
20027;BME280;10174;42.688;23.344;2023-04-02T08:38:41;94547.59;;;18.32;37.28
20027;BME280;10174;42.688;23.344;2023-04-02T08:41:06;94534.81;;;18.03;37.82
20027;BME280;10174;42.688;23.344;2023-04-02T08:43:47;94594.06;;;16.63;40.16
20027;BME280;10174;42.688;23.344;2023-04-02T08:46:25;94513.91;;;17.26;37.87
20027;BME280;10174;42.688;23.344;2023-04-02T08:48:57;94578.50;;;18.28;37.41
20027;BME280;10174;42.688;23.344;2023-04-02T08:51:32;94602.34;;;18.22;36.83
20027;BME280;10174;42.688;23.344;2023-04-02T08:54:06;94583.50;;;18.17;36.99
20027;BME280;10174;42.688;23.344;2023-04-02T08:56:43;94523.19;;;17.25;37.31
20027;BME280;10174;42.688;23.344;2023-04-02T08:59:26;94584.31;;;18.60;35.96
20027;BME280;10174;42.688;23.344;2023-04-02T09:04:42;94541.91;;;19.47;33.50
20027;BME280;10174;42.688;23.344;2023-04-02T09:07:11;94591.34;;;19.70;33.53
20027;BME280;10174;42.688;23.344;2023-04-02T09:09:41;94536.63;;;19.63;32.94
20027;BME280;10174;42.688;23.344;2023-04-02T09:12:28;94575.88;;;19.74;34.93
20027;BME280;10174;42.688;23.344;2023-04-02T09:17:29;94474.41;;;19.65;33.86
20027;BME280;10174;42.688;23.344;2023-04-02T09:20:17;94457.69;;;20.16;31.09
20027;BME280;10174;42.688;23.344;2023-04-02T09:22:48;94583.13;;;21.09;31.37
20027;BME280;10174;42.688;23.344;2023-04-02T09:25:26;94569.59;;;18.82;35.29
20027;BME280;10174;42.688;23.344;2023-04-02T09:27:53;94508.09;;;16.98;37.31
20027;BME280;10174;42.688;23.344;2023-04-02T09:32:59;94579.69;;;17.15;38.31
20027;BME280;10174;42.688;23.344;2023-04-02T09:35:31;94569.66;;;16.63;38.60
20027;BME280;10174;42.688;23.344;2023-04-02T09:40:40;94496.66;;;16.40;39.52
20027;BME280;10174;42.688;23.344;2023-04-02T09:43:14;94553.53;;;18.26;37.52
20027;BME280;10174;42.688;23.344;2023-04-02T09:45:41;94556.22;;;18.05;36.31
20027;BME280;10174;42.688;23.344;2023-04-02T09:48:32;94562.63;;;17.23;38.39
20027;BME280;10174;42.688;23.344;2023-04-02T09:56:19;94554.53;;;16.27;38.74
20027;BME280;10174;42.688;23.344;2023-04-02T10:01:34;94527.66;;;15.81;40.50
20027;BME280;10174;42.688;23.344;2023-04-02T10:04:01;94475.84;;;15.74;39.11
20027;BME280;10174;42.688;23.344;2023-04-02T10:06:28;94535.69;;;16.04;38.40
20027;BME280;10174;42.688;23.344;2023-04-02T10:08:54;94487.53;;;16.80;36.86
20027;BME280;10174;42.688;23.344;2023-04-02T10:13:51;94542.88;;;17.52;36.24
20027;BME280;10174;42.688;23.344;2023-04-02T10:16:35;94545.50;;;17.70;36.60
20027;BME280;10174;42.688;23.344;2023-04-02T10:19:27;94493.97;;;17.22;36.23
20027;BME280;10174;42.688;23.344;2023-04-02T10:21:56;94523.03;;;18.62;34.34
20027;BME280;10174;42.688;23.344;2023-04-02T10:24:26;94509.19;;;18.13;34.33
20027;BME280;10174;42.688;23.344;2023-04-02T10:32:15;94541.59;;;18.18;35.42
20027;BME280;10174;42.688;23.344;2023-04-02T10:34:56;94454.66;;;19.31;33.55
20027;BME280;10174;42.688;23.344;2023-04-02T10:48:51;94534.09;;;18.99;34.10
20027;BME280;10174;42.688;23.344;2023-04-02T10:51:28;94532.59;;;18.68;34.86
20027;BME280;10174;42.688;23.344;2023-04-02T10:56:46;94506.09;;;18.99;33.97
20027;BME280;10174;42.688;23.344;2023-04-02T10:59:22;94517.06;;;19.36;33.82
20027;BME280;10174;42.688;23.344;2023-04-02T11:01:50;94437.00;;;20.15;32.07
20027;BME280;10174;42.688;23.344;2023-04-02T11:04:22;94517.13;;;20.51;30.85
20027;BME280;10174;42.688;23.344;2023-04-02T11:07:16;94522.88;;;20.74;30.66
20027;BME280;10174;42.688;23.344;2023-04-02T11:09:48;94521.72;;;21.47;29.59
20027;BME280;10174;42.688;23.344;2023-04-02T11:14:45;94503.13;;;20.64;29.96
20027;BME280;10174;42.688;23.344;2023-04-02T11:17:13;94511.53;;;20.59;30.49
20027;BME280;10174;42.688;23.344;2023-04-02T11:19:40;94487.69;;;19.91;31.17
20027;BME280;10174;42.688;23.344;2023-04-02T11:22:32;94514.47;;;20.14;31.11
20027;BME280;10174;42.688;23.344;2023-04-02T11:25:19;94468.00;;;20.22;30.37
20027;BME280;10174;42.688;23.344;2023-04-02T11:27:45;94489.03;;;19.97;31.00
20027;BME280;10174;42.688;23.344;2023-04-02T11:32:42;94379.59;;;18.05;32.96
20027;BME280;10174;42.688;23.344;2023-04-02T11:38:47;94497.88;;;19.32;32.78
20027;BME280;10174;42.688;23.344;2023-04-02T11:40:51;94520.06;;;19.80;32.55
20027;BME280;10174;42.688;23.344;2023-04-02T11:50:53;94459.47;;;21.88;28.88
20027;BME280;10174;42.688;23.344;2023-04-02T11:53:29;94457.59;;;21.93;28.07
20027;BME280;10174;42.688;23.344;2023-04-02T12:01:55;94480.44;;;21.21;29.33
20027;BME280;10174;42.688;23.344;2023-04-02T12:04:45;94508.56;;;19.62;31.50
20027;BME280;10174;42.688;23.344;2023-04-02T12:10:04;94361.25;;;17.59;33.56
20027;BME280;10174;42.688;23.344;2023-04-02T12:12:37;94478.44;;;18.76;33.30
20027;BME280;10174;42.688;23.344;2023-04-02T12:15:38;94496.75;;;19.33;31.95
20027;BME280;10174;42.688;23.344;2023-04-02T12:18:23;94496.78;;;18.24;34.24
20027;BME280;10174;42.688;23.344;2023-04-02T12:20:51;94493.03;;;17.18;35.26
20027;BME280;10174;42.688;23.344;2023-04-02T12:23:20;94503.50;;;16.72;36.47
20027;BME280;10174;42.688;23.344;2023-04-02T12:25:54;94503.19;;;16.39;37.48
20027;BME280;10174;42.688;23.344;2023-04-02T12:28:20;94491.69;;;16.77;37.21
20027;BME280;10174;42.688;23.344;2023-04-02T12:30:48;94461.72;;;16.56;36.31
20027;BME280;10174;42.688;23.344;2023-04-02T12:35:49;94480.81;;;16.95;35.53
20027;BME280;10174;42.688;23.344;2023-04-02T12:38:21;94455.50;;;17.20;35.30
20027;BME280;10174;42.688;23.344;2023-04-02T12:41:00;94451.97;;;17.29;34.60
20027;BME280;10174;42.688;23.344;2023-04-02T12:43:31;94397.88;;;16.76;34.62
20027;BME280;10174;42.688;23.344;2023-04-02T12:45:58;94384.84;;;16.61;35.15
20027;BME280;10174;42.688;23.344;2023-04-02T12:48:26;94461.22;;;16.71;35.60
20027;BME280;10174;42.688;23.344;2023-04-02T12:50:52;94459.28;;;16.89;35.27
20027;BME280;10174;42.688;23.344;2023-04-02T12:53:20;94450.81;;;17.00;35.07
20027;BME280;10174;42.688;23.344;2023-04-02T12:55:50;94466.78;;;16.92;35.45
20027;BME280;10174;42.688;23.344;2023-04-02T12:58:31;94472.31;;;17.14;35.23
20027;BME280;10174;42.688;23.344;2023-04-02T13:01:18;94472.53;;;16.73;36.01
20027;BME280;10174;42.688;23.344;2023-04-02T13:04:05;94472.88;;;16.54;35.83
20027;BME280;10174;42.688;23.344;2023-04-02T13:06:30;94452.66;;;16.26;35.99
20027;BME280;10174;42.688;23.344;2023-04-02T13:08:56;94457.25;;;16.51;36.13
20027;BME280;10174;42.688;23.344;2023-04-02T13:11:36;94463.59;;;16.90;35.32
20027;BME280;10174;42.688;23.344;2023-04-02T13:14:04;94468.97;;;16.99;34.67
20027;BME280;10174;42.688;23.344;2023-04-02T13:16:35;94433.31;;;16.71;35.19
20027;BME280;10174;42.688;23.344;2023-04-02T13:19:23;94400.38;;;16.34;35.03
20027;BME280;10174;42.688;23.344;2023-04-02T13:21:49;94464.56;;;16.60;35.46
20027;BME280;10174;42.688;23.344;2023-04-02T13:24:22;94433.97;;;16.68;35.14
20027;BME280;10174;42.688;23.344;2023-04-02T13:26:49;94425.94;;;16.80;34.95
20027;BME280;10174;42.688;23.344;2023-04-02T13:29:33;94284.47;;;15.83;35.37
20027;BME280;10174;42.688;23.344;2023-04-02T13:32:10;94442.63;;;17.08;34.33
20027;BME280;10174;42.688;23.344;2023-04-02T13:34:36;94419.38;;;16.90;34.23
20027;BME280;10174;42.688;23.344;2023-04-02T13:37:02;94422.72;;;16.96;33.71
20027;BME280;10174;42.688;23.344;2023-04-02T13:39:27;94455.50;;;17.20;34.50
20027;BME280;10174;42.688;23.344;2023-04-02T13:41:59;94436.03;;;16.62;34.70
20027;BME280;10174;42.688;23.344;2023-04-02T13:44:31;94436.16;;;16.66;34.92
20027;BME280;10174;42.688;23.344;2023-04-02T13:46:58;94360.34;;;16.39;34.51
20027;BME280;10174;42.688;23.344;2023-04-02T13:49:24;94452.09;;;16.76;33.69
20027;BME280;10174;42.688;23.344;2023-04-02T13:51:54;94455.31;;;16.78;33.57
20027;BME280;10174;42.688;23.344;2023-04-02T13:54:48;94446.19;;;16.91;33.40
20027;BME280;10174;42.688;23.344;2023-04-02T13:57:15;94437.59;;;16.89;32.84
20027;BME280;10174;42.688;23.344;2023-04-02T13:59:41;94410.53;;;16.54;33.17
20027;BME280;10174;42.688;23.344;2023-04-02T14:02:16;94351.78;;;16.20;33.74
20027;BME280;10174;42.688;23.344;2023-04-02T14:04:45;94438.34;;;16.99;33.11
20027;BME280;10174;42.688;23.344;2023-04-02T14:12:43;94439.09;;;17.17;32.80
20027;BME280;10174;42.688;23.344;2023-04-02T14:23:40;94415.44;;;16.70;33.43
20027;BME280;10174;42.688;23.344;2023-04-02T14:29:10;94438.88;;;16.66;33.72
20027;BME280;10174;42.688;23.344;2023-04-02T14:32:08;94439.06;;;16.52;33.82
20027;BME280;10174;42.688;23.344;2023-04-02T14:34:52;94389.09;;;16.14;34.04
20027;BME280;10174;42.688;23.344;2023-04-02T14:37:38;94430.00;;;16.48;33.94
20027;BME280;10174;42.688;23.344;2023-04-02T14:42:49;94427.25;;;16.74;33.68
20027;BME280;10174;42.688;23.344;2023-04-02T14:45:21;94428.03;;;16.66;33.53
20027;BME280;10174;42.688;23.344;2023-04-02T14:48:04;94326.50;;;15.81;33.67
20027;BME280;10174;42.688;23.344;2023-04-02T14:50:39;94400.66;;;16.50;33.82
20027;BME280;10174;42.688;23.344;2023-04-02T14:53:16;94417.69;;;16.68;32.89
20027;BME280;10174;42.688;23.344;2023-04-02T14:55:46;94397.63;;;16.51;32.81
20027;BME280;10174;42.688;23.344;2023-04-02T14:58:41;94423.25;;;16.63;33.06
20027;BME280;10174;42.688;23.344;2023-04-02T15:01:12;94423.19;;;15.98;33.79
20027;BME280;10174;42.688;23.344;2023-04-02T15:03:57;94422.06;;;15.90;33.91
20027;BME280;10174;42.688;23.344;2023-04-02T15:06:29;94371.69;;;15.54;33.93
20027;BME280;10174;42.688;23.344;2023-04-02T15:09:18;94440.06;;;15.95;33.99
20027;BME280;10174;42.688;23.344;2023-04-02T15:11:50;94435.28;;;15.92;34.34
20027;BME280;10174;42.688;23.344;2023-04-02T15:14:27;94354.19;;;15.52;33.74
20027;BME280;10174;42.688;23.344;2023-04-02T15:16:55;94428.59;;;16.15;34.37
20027;BME280;10174;42.688;23.344;2023-04-02T15:19:21;94445.97;;;16.23;33.37
20027;BME280;10174;42.688;23.344;2023-04-02T15:22:13;94438.16;;;16.39;33.18
20027;BME280;10174;42.688;23.344;2023-04-02T15:24:54;94450.56;;;16.49;33.15
20027;BME280;10174;42.688;23.344;2023-04-02T15:37:43;94463.00;;;16.59;33.10
20027;BME280;10174;42.688;23.344;2023-04-02T15:53:52;94453.44;;;16.35;33.44
20027;BME280;10174;42.688;23.344;2023-04-02T16:05:00;94464.19;;;15.65;33.24
20027;BME280;10174;42.688;23.344;2023-04-02T16:10:32;94368.84;;;14.93;33.53
20027;BME280;10174;42.688;23.344;2023-04-02T16:12:58;94403.28;;;15.19;33.11
20027;BME280;10174;42.688;23.344;2023-04-02T16:15:36;94457.81;;;15.52;32.91
20027;BME280;10174;42.688;23.344;2023-04-02T16:18:19;94378.69;;;14.80;33.08
20027;BME280;10174;42.688;23.344;2023-04-02T16:20:52;94397.13;;;14.87;33.10
20027;BME280;10174;42.688;23.344;2023-04-02T16:23:30;94368.38;;;14.59;33.62
20027;BME280;10174;42.688;23.344;2023-04-02T16:28:57;94485.06;;;15.16;34.18
20027;BME280;10174;42.688;23.344;2023-04-02T16:32:09;94484.72;;;15.08;34.22
20027;BME280;10174;42.688;23.344;2023-04-02T16:34:32;94479.09;;;14.96;34.24